sensor_id;sensor_type;location;lat;lon;timestamp;P1;durP1;ratioP1;P2;durP2;ratioP2
26062;SDS011;13837;48.562;12.108;2023-04-15T00:01:07;22.48;;;20.58;;
26062;SDS011;13837;48.562;12.108;2023-04-15T00:03:34;21.77;;;20.02;;
26062;SDS011;13837;48.562;12.108;2023-04-15T00:06:00;21.27;;;19.58;;
26062;SDS011;13837;48.562;12.108;2023-04-15T00:08:26;20.75;;;19.05;;
26062;SDS011;13837;48.562;12.108;2023-04-15T00:10:54;21.25;;;19.45;;
26062;SDS011;13837;48.562;12.108;2023-04-15T00:13:20;20.80;;;19.05;;
26062;SDS011;13837;48.562;12.108;2023-04-15T00:15:46;20.52;;;18.92;;
26062;SDS011;13837;48.562;12.108;2023-04-15T00:18:12;19.85;;;18.45;;
26062;SDS011;13837;48.562;12.108;2023-04-15T00:20:38;21.33;;;19.55;;
26062;SDS011;13837;48.562;12.108;2023-04-15T00:23:04;21.17;;;19.58;;
26062;SDS011;13837;48.562;12.108;2023-04-15T00:25:32;22.25;;;20.63;;
26062;SDS011;13837;48.562;12.108;2023-04-15T00:27:58;21.27;;;19.60;;
26062;SDS011;13837;48.562;12.108;2023-04-15T00:30:24;21.80;;;20.17;;
26062;SDS011;13837;48.562;12.108;2023-04-15T00:32:51;23.15;;;21.17;;
26062;SDS011;13837;48.562;12.108;2023-04-15T00:35:19;22.97;;;21.10;;
26062;SDS011;13837;48.562;12.108;2023-04-15T00:37:45;24.20;;;22.10;;
26062;SDS011;13837;48.562;12.108;2023-04-15T00:40:12;22.88;;;21.13;;
26062;SDS011;13837;48.562;12.108;2023-04-15T00:42:38;22.30;;;20.60;;
26062;SDS011;13837;48.562;12.108;2023-04-15T00:45:04;22.50;;;20.73;;
26062;SDS011;13837;48.562;12.108;2023-04-15T00:47:31;23.65;;;21.67;;
26062;SDS011;13837;48.562;12.108;2023-04-15T00:49:58;23.88;;;21.77;;
26062;SDS011;13837;48.562;12.108;2023-04-15T00:52:24;24.90;;;22.50;;
26062;SDS011;13837;48.562;12.108;2023-04-15T00:54:51;22.60;;;20.80;;
26062;SDS011;13837;48.562;12.108;2023-04-15T00:57:17;21.77;;;20.10;;
26062;SDS011;13837;48.562;12.108;2023-04-15T00:59:44;21.83;;;20.13;;
26062;SDS011;13837;48.562;12.108;2023-04-15T01:02:11;23.08;;;21.17;;
26062;SDS011;13837;48.562;12.108;2023-04-15T01:04:37;23.45;;;21.58;;
26062;SDS011;13837;48.562;12.108;2023-04-15T01:07:03;24.23;;;22.13;;
26062;SDS011;13837;48.562;12.108;2023-04-15T01:09:29;23.45;;;21.63;;
26062;SDS011;13837;48.562;12.108;2023-04-15T01:11:55;23.55;;;21.75;;
26062;SDS011;13837;48.562;12.108;2023-04-15T01:14:23;23.35;;;21.35;;
26062;SDS011;13837;48.562;12.108;2023-04-15T01:16:51;24.17;;;22.08;;
26062;SDS011;13837;48.562;12.108;2023-04-15T01:19:17;22.80;;;21.05;;
26062;SDS011;13837;48.562;12.108;2023-04-15T01:21:43;24.02;;;22.13;;
26062;SDS011;13837;48.562;12.108;2023-04-15T01:24:10;22.73;;;20.83;;
26062;SDS011;13837;48.562;12.108;2023-04-15T01:26:37;23.77;;;21.65;;
26062;SDS011;13837;48.562;12.108;2023-04-15T01:29:05;22.88;;;21.20;;
26062;SDS011;13837;48.562;12.108;2023-04-15T01:31:32;22.25;;;20.63;;
26062;SDS011;13837;48.562;12.108;2023-04-15T01:33:58;24.30;;;21.88;;
26062;SDS011;13837;48.562;12.108;2023-04-15T01:36:25;23.23;;;21.48;;
26062;SDS011;13837;48.562;12.108;2023-04-15T01:38:52;23.95;;;22.08;;
26062;SDS011;13837;48.562;12.108;2023-04-15T01:41:26;23.30;;;21.53;;
26062;SDS011;13837;48.562;12.108;2023-04-15T01:43:53;22.77;;;20.83;;
26062;SDS011;13837;48.562;12.108;2023-04-15T01:46:19;22.85;;;20.95;;
26062;SDS011;13837;48.562;12.108;2023-04-15T01:48:46;23.17;;;21.23;;
26062;SDS011;13837;48.562;12.108;2023-04-15T01:51:12;22.88;;;20.92;;
26062;SDS011;13837;48.562;12.108;2023-04-15T01:53:38;22.73;;;20.90;;
26062;SDS011;13837;48.562;12.108;2023-04-15T01:56:04;24.10;;;22.10;;
26062;SDS011;13837;48.562;12.108;2023-04-15T01:58:31;22.83;;;20.90;;
26062;SDS011;13837;48.562;12.108;2023-04-15T02:00:58;24.02;;;22.08;;
26062;SDS011;13837;48.562;12.108;2023-04-15T02:03:24;23.38;;;21.40;;
26062;SDS011;13837;48.562;12.108;2023-04-15T02:05:51;24.70;;;22.52;;
26062;SDS011;13837;48.562;12.108;2023-04-15T02:08:17;23.92;;;22.02;;
26062;SDS011;13837;48.562;12.108;2023-04-15T02:10:43;24.98;;;22.83;;
26062;SDS011;13837;48.562;12.108;2023-04-15T02:13:09;23.95;;;22.08;;
26062;SDS011;13837;48.562;12.108;2023-04-15T02:15:35;23.50;;;21.60;;
26062;SDS011;13837;48.562;12.108;2023-04-15T02:18:01;24.13;;;22.10;;
26062;SDS011;13837;48.562;12.108;2023-04-15T02:20:27;24.50;;;22.52;;
26062;SDS011;13837;48.562;12.108;2023-04-15T02:22:56;24.63;;;22.63;;
26062;SDS011;13837;48.562;12.108;2023-04-15T02:25:22;25.13;;;22.90;;
26062;SDS011;13837;48.562;12.108;2023-04-15T02:27:48;25.20;;;22.90;;
26062;SDS011;13837;48.562;12.108;2023-04-15T02:30:15;24.80;;;22.60;;
26062;SDS011;13837;48.562;12.108;2023-04-15T02:32:41;24.70;;;22.73;;
26062;SDS011;13837;48.562;12.108;2023-04-15T02:35:09;25.52;;;23.23;;
26062;SDS011;13837;48.562;12.108;2023-04-15T02:37:36;25.45;;;23.33;;
26062;SDS011;13837;48.562;12.108;2023-04-15T02:40:09;25.83;;;23.52;;
26062;SDS011;13837;48.562;12.108;2023-04-15T02:42:36;24.35;;;22.10;;
26062;SDS011;13837;48.562;12.108;2023-04-15T02:45:02;26.80;;;24.33;;
26062;SDS011;13837;48.562;12.108;2023-04-15T02:47:32;26.70;;;24.40;;
26062;SDS011;13837;48.562;12.108;2023-04-15T02:49:58;26.88;;;24.63;;
26062;SDS011;13837;48.562;12.108;2023-04-15T02:52:27;28.08;;;25.63;;
26062;SDS011;13837;48.562;12.108;2023-04-15T02:54:53;28.02;;;25.55;;
26062;SDS011;13837;48.562;12.108;2023-04-15T02:57:25;28.27;;;25.67;;
26062;SDS011;13837;48.562;12.108;2023-04-15T02:59:53;28.80;;;26.20;;
26062;SDS011;13837;48.562;12.108;2023-04-15T03:02:19;29.33;;;26.73;;
26062;SDS011;13837;48.562;12.108;2023-04-15T03:04:46;28.63;;;26.10;;
26062;SDS011;13837;48.562;12.108;2023-04-15T03:07:12;28.60;;;25.98;;
26062;SDS011;13837;48.562;12.108;2023-04-15T03:09:38;28.77;;;26.20;;
26062;SDS011;13837;48.562;12.108;2023-04-15T03:12:05;30.13;;;27.40;;
26062;SDS011;13837;48.562;12.108;2023-04-15T03:14:31;27.45;;;25.17;;
26062;SDS011;13837;48.562;12.108;2023-04-15T03:16:57;29.13;;;26.45;;
26062;SDS011;13837;48.562;12.108;2023-04-15T03:19:24;28.15;;;25.33;;
26062;SDS011;13837;48.562;12.108;2023-04-15T03:21:50;29.27;;;26.58;;
26062;SDS011;13837;48.562;12.108;2023-04-15T03:24:17;28.80;;;26.20;;
26062;SDS011;13837;48.562;12.108;2023-04-15T03:26:43;28.67;;;26.00;;
26062;SDS011;13837;48.562;12.108;2023-04-15T03:29:13;28.45;;;26.05;;
26062;SDS011;13837;48.562;12.108;2023-04-15T03:31:39;27.95;;;25.33;;
26062;SDS011;13837;48.562;12.108;2023-04-15T03:34:05;27.90;;;25.40;;
26062;SDS011;13837;48.562;12.108;2023-04-15T03:36:31;27.42;;;24.95;;
26062;SDS011;13837;48.562;12.108;2023-04-15T03:38:58;27.80;;;25.30;;
26062;SDS011;13837;48.562;12.108;2023-04-15T03:41:26;25.75;;;23.63;;
26062;SDS011;13837;48.562;12.108;2023-04-15T03:43:52;25.08;;;22.98;;
26062;SDS011;13837;48.562;12.108;2023-04-15T03:46:19;26.35;;;23.85;;
26062;SDS011;13837;48.562;12.108;2023-04-15T03:48:46;26.27;;;24.05;;
26062;SDS011;13837;48.562;12.108;2023-04-15T03:51:12;26.27;;;24.08;;
26062;SDS011;13837;48.562;12.108;2023-04-15T03:53:38;25.83;;;23.63;;
26062;SDS011;13837;48.562;12.108;2023-04-15T03:56:04;25.30;;;22.80;;
26062;SDS011;13837;48.562;12.108;2023-04-15T03:58:30;24.77;;;22.67;;
26062;SDS011;13837;48.562;12.108;2023-04-15T04:00:56;25.65;;;23.38;;
26062;SDS011;13837;48.562;12.108;2023-04-15T04:03:22;25.35;;;23.30;;
26062;SDS011;13837;48.562;12.108;2023-04-15T04:05:48;25.63;;;23.42;;
26062;SDS011;13837;48.562;12.108;2023-04-15T04:08:15;28.00;;;25.38;;
26062;SDS011;13837;48.562;12.108;2023-04-15T04:10:41;26.33;;;24.02;;
26062;SDS011;13837;48.562;12.108;2023-04-15T04:13:07;27.45;;;24.88;;
26062;SDS011;13837;48.562;12.108;2023-04-15T04:15:33;26.60;;;24.33;;
26062;SDS011;13837;48.562;12.108;2023-04-15T04:17:59;27.08;;;24.67;;
26062;SDS011;13837;48.562;12.108;2023-04-15T04:20:25;26.50;;;24.15;;
26062;SDS011;13837;48.562;12.108;2023-04-15T04:22:51;28.08;;;25.45;;
26062;SDS011;13837;48.562;12.108;2023-04-15T04:25:17;27.25;;;24.70;;
26062;SDS011;13837;48.562;12.108;2023-04-15T04:27:43;26.85;;;24.52;;
26062;SDS011;13837;48.562;12.108;2023-04-15T04:30:10;28.00;;;25.50;;
26062;SDS011;13837;48.562;12.108;2023-04-15T04:32:36;27.60;;;25.10;;
26062;SDS011;13837;48.562;12.108;2023-04-15T04:35:03;25.65;;;23.45;;
26062;SDS011;13837;48.562;12.108;2023-04-15T04:37:29;27.63;;;25.33;;
26062;SDS011;13837;48.562;12.108;2023-04-15T04:39:55;27.45;;;25.15;;
26062;SDS011;13837;48.562;12.108;2023-04-15T04:42:21;27.92;;;25.52;;
26062;SDS011;13837;48.562;12.108;2023-04-15T04:44:47;28.83;;;26.20;;
26062;SDS011;13837;48.562;12.108;2023-04-15T04:47:13;25.77;;;23.52;;
26062;SDS011;13837;48.562;12.108;2023-04-15T04:49:39;26.77;;;24.42;;
26062;SDS011;13837;48.562;12.108;2023-04-15T04:52:05;25.33;;;23.23;;
26062;SDS011;13837;48.562;12.108;2023-04-15T04:54:32;26.40;;;24.10;;
26062;SDS011;13837;48.562;12.108;2023-04-15T04:56:58;25.73;;;23.50;;
26062;SDS011;13837;48.562;12.108;2023-04-15T04:59:24;26.45;;;24.20;;
26062;SDS011;13837;48.562;12.108;2023-04-15T05:01:51;27.40;;;24.88;;
26062;SDS011;13837;48.562;12.108;2023-04-15T05:04:17;26.75;;;24.45;;
26062;SDS011;13837;48.562;12.108;2023-04-15T05:06:43;25.65;;;23.55;;
26062;SDS011;13837;48.562;12.108;2023-04-15T05:09:09;26.20;;;24.00;;
26062;SDS011;13837;48.562;12.108;2023-04-15T05:11:35;26.95;;;24.75;;
26062;SDS011;13837;48.562;12.108;2023-04-15T05:14:01;26.63;;;24.40;;
26062;SDS011;13837;48.562;12.108;2023-04-15T05:16:27;25.52;;;23.38;;
26062;SDS011;13837;48.562;12.108;2023-04-15T05:18:53;25.88;;;23.27;;
26062;SDS011;13837;48.562;12.108;2023-04-15T05:21:19;26.27;;;23.88;;
26062;SDS011;13837;48.562;12.108;2023-04-15T05:23:45;26.20;;;24.17;;
26062;SDS011;13837;48.562;12.108;2023-04-15T05:26:11;26.00;;;23.92;;
26062;SDS011;13837;48.562;12.108;2023-04-15T05:28:37;27.05;;;24.83;;
26062;SDS011;13837;48.562;12.108;2023-04-15T05:31:04;27.52;;;25.05;;
26062;SDS011;13837;48.562;12.108;2023-04-15T05:33:31;26.33;;;24.10;;
26062;SDS011;13837;48.562;12.108;2023-04-15T05:35:57;28.45;;;25.77;;
26062;SDS011;13837;48.562;12.108;2023-04-15T05:38:23;26.30;;;24.20;;
26062;SDS011;13837;48.562;12.108;2023-04-15T05:40:49;27.25;;;24.65;;
26062;SDS011;13837;48.562;12.108;2023-04-15T05:43:15;26.10;;;23.83;;
26062;SDS011;13837;48.562;12.108;2023-04-15T05:45:41;27.65;;;25.17;;
26062;SDS011;13837;48.562;12.108;2023-04-15T05:48:08;27.92;;;25.30;;
26062;SDS011;13837;48.562;12.108;2023-04-15T05:50:34;25.90;;;23.80;;
26062;SDS011;13837;48.562;12.108;2023-04-15T05:53:00;26.33;;;24.13;;
26062;SDS011;13837;48.562;12.108;2023-04-15T05:55:26;26.88;;;24.67;;
26062;SDS011;13837;48.562;12.108;2023-04-15T05:57:52;25.63;;;23.63;;
26062;SDS011;13837;48.562;12.108;2023-04-15T06:00:18;25.35;;;23.30;;
26062;SDS011;13837;48.562;12.108;2023-04-15T06:02:45;26.35;;;24.25;;
26062;SDS011;13837;48.562;12.108;2023-04-15T06:05:11;27.17;;;24.98;;
26062;SDS011;13837;48.562;12.108;2023-04-15T06:07:38;26.02;;;23.80;;
26062;SDS011;13837;48.562;12.108;2023-04-15T06:10:04;26.63;;;24.52;;
26062;SDS011;13837;48.562;12.108;2023-04-15T06:12:31;25.77;;;23.77;;
26062;SDS011;13837;48.562;12.108;2023-04-15T06:14:57;25.08;;;23.08;;
26062;SDS011;13837;48.562;12.108;2023-04-15T06:17:23;25.10;;;23.05;;
26062;SDS011;13837;48.562;12.108;2023-04-15T06:19:50;26.42;;;24.20;;
26062;SDS011;13837;48.562;12.108;2023-04-15T06:22:20;26.10;;;23.80;;
26062;SDS011;13837;48.562;12.108;2023-04-15T06:24:47;26.45;;;24.25;;
26062;SDS011;13837;48.562;12.108;2023-04-15T06:27:14;26.15;;;23.85;;
26062;SDS011;13837;48.562;12.108;2023-04-15T06:29:40;26.35;;;24.17;;
26062;SDS011;13837;48.562;12.108;2023-04-15T06:32:07;26.02;;;23.95;;
26062;SDS011;13837;48.562;12.108;2023-04-15T06:34:33;26.33;;;24.13;;
26062;SDS011;13837;48.562;12.108;2023-04-15T06:36:59;27.33;;;24.98;;
26062;SDS011;13837;48.562;12.108;2023-04-15T06:39:25;26.23;;;23.92;;
26062;SDS011;13837;48.562;12.108;2023-04-15T06:41:51;27.35;;;25.17;;
26062;SDS011;13837;48.562;12.108;2023-04-15T06:44:19;27.75;;;25.42;;
26062;SDS011;13837;48.562;12.108;2023-04-15T06:46:46;28.13;;;25.40;;
26062;SDS011;13837;48.562;12.108;2023-04-15T06:49:12;26.92;;;24.75;;
26062;SDS011;13837;48.562;12.108;2023-04-15T06:51:38;27.75;;;25.42;;
26062;SDS011;13837;48.562;12.108;2023-04-15T06:54:04;27.27;;;24.98;;
26062;SDS011;13837;48.562;12.108;2023-04-15T06:56:32;27.23;;;24.92;;
26062;SDS011;13837;48.562;12.108;2023-04-15T06:58:58;27.13;;;24.83;;
26062;SDS011;13837;48.562;12.108;2023-04-15T07:01:24;25.30;;;23.35;;
26062;SDS011;13837;48.562;12.108;2023-04-15T07:03:50;26.38;;;24.38;;
26062;SDS011;13837;48.562;12.108;2023-04-15T07:06:16;26.15;;;24.00;;
26062;SDS011;13837;48.562;12.108;2023-04-15T07:08:42;25.55;;;23.45;;
26062;SDS011;13837;48.562;12.108;2023-04-15T07:11:09;25.58;;;23.48;;
26062;SDS011;13837;48.562;12.108;2023-04-15T07:13:35;25.02;;;23.00;;
26062;SDS011;13837;48.562;12.108;2023-04-15T07:16:01;24.42;;;22.42;;
26062;SDS011;13837;48.562;12.108;2023-04-15T07:18:27;24.20;;;22.33;;
26062;SDS011;13837;48.562;12.108;2023-04-15T07:20:53;25.20;;;23.25;;
26062;SDS011;13837;48.562;12.108;2023-04-15T07:23:20;26.45;;;24.02;;
26062;SDS011;13837;48.562;12.108;2023-04-15T07:25:46;24.52;;;22.67;;
26062;SDS011;13837;48.562;12.108;2023-04-15T07:28:12;26.13;;;24.13;;
26062;SDS011;13837;48.562;12.108;2023-04-15T07:30:38;24.60;;;22.80;;
26062;SDS011;13837;48.562;12.108;2023-04-15T07:33:04;24.20;;;22.15;;
26062;SDS011;13837;48.562;12.108;2023-04-15T07:35:31;24.00;;;21.98;;
26062;SDS011;13837;48.562;12.108;2023-04-15T07:37:57;25.40;;;23.45;;
26062;SDS011;13837;48.562;12.108;2023-04-15T07:40:23;24.83;;;22.83;;
26062;SDS011;13837;48.562;12.108;2023-04-15T07:42:49;25.25;;;23.23;;
26062;SDS011;13837;48.562;12.108;2023-04-15T07:45:15;25.10;;;23.08;;
26062;SDS011;13837;48.562;12.108;2023-04-15T07:47:41;26.52;;;24.25;;
26062;SDS011;13837;48.562;12.108;2023-04-15T07:50:08;25.48;;;23.27;;
26062;SDS011;13837;48.562;12.108;2023-04-15T07:52:37;25.17;;;22.98;;
26062;SDS011;13837;48.562;12.108;2023-04-15T07:55:06;25.95;;;23.83;;
26062;SDS011;13837;48.562;12.108;2023-04-15T07:57:36;25.92;;;23.83;;
26062;SDS011;13837;48.562;12.108;2023-04-15T08:00:02;26.00;;;23.92;;
26062;SDS011;13837;48.562;12.108;2023-04-15T08:02:37;25.17;;;23.17;;
26062;SDS011;13837;48.562;12.108;2023-04-15T08:05:04;25.55;;;23.35;;
26062;SDS011;13837;48.562;12.108;2023-04-15T08:07:31;24.25;;;22.35;;
26062;SDS011;13837;48.562;12.108;2023-04-15T08:09:57;26.50;;;23.95;;
26062;SDS011;13837;48.562;12.108;2023-04-15T08:12:23;25.65;;;23.40;;
26062;SDS011;13837;48.562;12.108;2023-04-15T08:14:50;24.33;;;22.40;;
26062;SDS011;13837;48.562;12.108;2023-04-15T08:17:16;24.48;;;22.48;;
26062;SDS011;13837;48.562;12.108;2023-04-15T08:19:42;24.73;;;22.75;;
26062;SDS011;13837;48.562;12.108;2023-04-15T08:22:09;23.90;;;22.00;;
26062;SDS011;13837;48.562;12.108;2023-04-15T08:24:36;25.80;;;23.60;;
26062;SDS011;13837;48.562;12.108;2023-04-15T08:27:02;25.52;;;23.40;;
26062;SDS011;13837;48.562;12.108;2023-04-15T08:29:30;24.25;;;22.33;;
26062;SDS011;13837;48.562;12.108;2023-04-15T08:31:58;26.05;;;23.80;;
26062;SDS011;13837;48.562;12.108;2023-04-15T08:34:24;26.02;;;23.63;;
26062;SDS011;13837;48.562;12.108;2023-04-15T08:36:50;24.02;;;22.08;;
26062;SDS011;13837;48.562;12.108;2023-04-15T08:39:17;25.08;;;22.95;;
26062;SDS011;13837;48.562;12.108;2023-04-15T08:42:02;26.20;;;24.00;;
26062;SDS011;13837;48.562;12.108;2023-04-15T08:44:34;25.40;;;23.20;;
26062;SDS011;13837;48.562;12.108;2023-04-15T08:47:03;25.95;;;23.92;;
26062;SDS011;13837;48.562;12.108;2023-04-15T08:49:32;24.40;;;22.40;;
26062;SDS011;13837;48.562;12.108;2023-04-15T08:52:00;24.02;;;22.17;;
26062;SDS011;13837;48.562;12.108;2023-04-15T08:54:28;24.42;;;22.55;;
26062;SDS011;13837;48.562;12.108;2023-04-15T08:56:56;23.80;;;21.90;;
26062;SDS011;13837;48.562;12.108;2023-04-15T08:59:22;23.40;;;21.67;;
26062;SDS011;13837;48.562;12.108;2023-04-15T09:01:49;23.15;;;21.33;;
26062;SDS011;13837;48.562;12.108;2023-04-15T09:04:15;23.08;;;20.88;;
26062;SDS011;13837;48.562;12.108;2023-04-15T09:06:41;21.95;;;20.25;;
26062;SDS011;13837;48.562;12.108;2023-04-15T09:09:07;22.20;;;20.50;;
26062;SDS011;13837;48.562;12.108;2023-04-15T09:11:33;23.23;;;21.40;;
26062;SDS011;13837;48.562;12.108;2023-04-15T09:14:00;23.55;;;21.63;;
26062;SDS011;13837;48.562;12.108;2023-04-15T09:16:26;22.83;;;20.85;;
26062;SDS011;13837;48.562;12.108;2023-04-15T09:18:52;22.80;;;20.98;;
26062;SDS011;13837;48.562;12.108;2023-04-15T09:21:18;23.35;;;21.35;;
26062;SDS011;13837;48.562;12.108;2023-04-15T09:26:31;21.67;;;20.05;;
26062;SDS011;13837;48.562;12.108;2023-04-15T09:29:02;23.73;;;21.92;;
26062;SDS011;13837;48.562;12.108;2023-04-15T09:31:29;23.80;;;21.92;;
26062;SDS011;13837;48.562;12.108;2023-04-15T09:33:55;25.05;;;22.88;;
26062;SDS011;13837;48.562;12.108;2023-04-15T09:36:21;23.77;;;21.95;;
26062;SDS011;13837;48.562;12.108;2023-04-15T09:38:55;23.35;;;21.23;;
26062;SDS011;13837;48.562;12.108;2023-04-15T09:41:22;23.95;;;22.13;;
26062;SDS011;13837;48.562;12.108;2023-04-15T09:43:49;24.02;;;22.05;;
26062;SDS011;13837;48.562;12.108;2023-04-15T09:46:15;25.58;;;23.30;;
26062;SDS011;13837;48.562;12.108;2023-04-15T09:48:41;22.63;;;20.83;;
26062;SDS011;13837;48.562;12.108;2023-04-15T09:51:07;23.95;;;22.02;;
26062;SDS011;13837;48.562;12.108;2023-04-15T09:53:34;24.52;;;22.55;;
26062;SDS011;13837;48.562;12.108;2023-04-15T09:56:00;26.08;;;23.85;;
26062;SDS011;13837;48.562;12.108;2023-04-15T09:58:27;23.95;;;21.95;;
26062;SDS011;13837;48.562;12.108;2023-04-15T10:00:54;24.08;;;22.02;;
26062;SDS011;13837;48.562;12.108;2023-04-15T10:03:22;24.10;;;22.20;;
26062;SDS011;13837;48.562;12.108;2023-04-15T10:05:49;26.30;;;24.10;;
26062;SDS011;13837;48.562;12.108;2023-04-15T10:08:20;25.70;;;23.58;;
26062;SDS011;13837;48.562;12.108;2023-04-15T10:10:46;33.65;;;26.85;;
26062;SDS011;13837;48.562;12.108;2023-04-15T10:13:13;29.90;;;26.50;;
26062;SDS011;13837;48.562;12.108;2023-04-15T10:15:42;26.67;;;24.17;;
26062;SDS011;13837;48.562;12.108;2023-04-15T10:18:09;27.77;;;25.08;;
26062;SDS011;13837;48.562;12.108;2023-04-15T10:20:36;26.38;;;24.27;;
26062;SDS011;13837;48.562;12.108;2023-04-15T10:23:02;26.88;;;24.70;;
26062;SDS011;13837;48.562;12.108;2023-04-15T10:25:29;27.52;;;25.08;;
26062;SDS011;13837;48.562;12.108;2023-04-15T10:27:55;28.73;;;26.13;;
26062;SDS011;13837;48.562;12.108;2023-04-15T10:30:22;26.15;;;23.95;;
26062;SDS011;13837;48.562;12.108;2023-04-15T10:32:48;27.85;;;25.40;;
26062;SDS011;13837;48.562;12.108;2023-04-15T10:35:15;28.73;;;26.13;;
26062;SDS011;13837;48.562;12.108;2023-04-15T10:37:42;25.88;;;23.70;;
26062;SDS011;13837;48.562;12.108;2023-04-15T10:40:29;27.02;;;24.83;;
26062;SDS011;13837;48.562;12.108;2023-04-15T10:42:59;27.33;;;24.90;;
26062;SDS011;13837;48.562;12.108;2023-04-15T10:45:33;27.25;;;24.85;;
26062;SDS011;13837;48.562;12.108;2023-04-15T10:48:01;29.13;;;26.52;;
26062;SDS011;13837;48.562;12.108;2023-04-15T10:50:29;29.92;;;27.33;;
26062;SDS011;13837;48.562;12.108;2023-04-15T10:52:56;29.90;;;27.33;;
26062;SDS011;13837;48.562;12.108;2023-04-15T10:55:24;30.67;;;27.73;;
26062;SDS011;13837;48.562;12.108;2023-04-15T10:57:57;33.45;;;29.88;;
26062;SDS011;13837;48.562;12.108;2023-04-15T11:00:25;33.95;;;30.50;;
26062;SDS011;13837;48.562;12.108;2023-04-15T11:02:55;35.58;;;29.95;;
26062;SDS011;13837;48.562;12.108;2023-04-15T11:05:22;29.98;;;27.25;;
26062;SDS011;13837;48.562;12.108;2023-04-15T11:07:50;29.33;;;26.77;;
26062;SDS011;13837;48.562;12.108;2023-04-15T11:12:45;28.20;;;25.70;;
26062;SDS011;13837;48.562;12.108;2023-04-15T11:15:24;27.65;;;25.45;;
26062;SDS011;13837;48.562;12.108;2023-04-15T11:17:52;28.63;;;25.98;;
26062;SDS011;13837;48.562;12.108;2023-04-15T11:20:18;27.65;;;25.35;;
26062;SDS011;13837;48.562;12.108;2023-04-15T11:22:51;27.23;;;24.92;;
26062;SDS011;13837;48.562;12.108;2023-04-15T11:25:21;26.70;;;24.50;;
26062;SDS011;13837;48.562;12.108;2023-04-15T11:27:48;28.08;;;25.58;;
26062;SDS011;13837;48.562;12.108;2023-04-15T11:30:17;25.92;;;23.55;;
26062;SDS011;13837;48.562;12.108;2023-04-15T11:32:45;24.85;;;22.98;;
26062;SDS011;13837;48.562;12.108;2023-04-15T11:35:15;22.98;;;21.35;;
26062;SDS011;13837;48.562;12.108;2023-04-15T11:37:41;23.90;;;22.10;;
26062;SDS011;13837;48.562;12.108;2023-04-15T11:40:07;24.70;;;22.58;;
26062;SDS011;13837;48.562;12.108;2023-04-15T11:42:34;25.80;;;23.58;;
26062;SDS011;13837;48.562;12.108;2023-04-15T11:45:12;22.77;;;21.17;;
26062;SDS011;13837;48.562;12.108;2023-04-15T11:47:38;23.00;;;21.20;;
26062;SDS011;13837;48.562;12.108;2023-04-15T11:50:18;22.80;;;21.10;;
26062;SDS011;13837;48.562;12.108;2023-04-15T11:53:00;24.35;;;22.40;;
26062;SDS011;13837;48.562;12.108;2023-04-15T11:55:27;23.83;;;21.98;;
26062;SDS011;13837;48.562;12.108;2023-04-15T11:58:09;21.95;;;20.35;;
26062;SDS011;13837;48.562;12.108;2023-04-15T12:00:36;21.80;;;20.05;;
26062;SDS011;13837;48.562;12.108;2023-04-15T12:06:23;22.00;;;20.45;;
26062;SDS011;13837;48.562;12.108;2023-04-15T12:08:24;22.30;;;20.65;;
26062;SDS011;13837;48.562;12.108;2023-04-15T12:10:50;21.90;;;20.30;;
26062;SDS011;13837;48.562;12.108;2023-04-15T12:13:16;21.65;;;20.05;;
26062;SDS011;13837;48.562;12.108;2023-04-15T12:15:42;20.42;;;19.00;;
26062;SDS011;13837;48.562;12.108;2023-04-15T12:18:15;19.50;;;18.17;;
26062;SDS011;13837;48.562;12.108;2023-04-15T12:20:45;19.70;;;18.30;;
26062;SDS011;13837;48.562;12.108;2023-04-15T12:25:37;17.85;;;16.45;;
26062;SDS011;13837;48.562;12.108;2023-04-15T12:28:10;17.98;;;16.75;;
26062;SDS011;13837;48.562;12.108;2023-04-15T12:30:47;13.63;;;12.63;;
26062;SDS011;13837;48.562;12.108;2023-04-15T12:33:14;17.17;;;15.88;;
26062;SDS011;13837;48.562;12.108;2023-04-15T12:35:40;17.90;;;16.80;;
26062;SDS011;13837;48.562;12.108;2023-04-15T12:38:06;18.02;;;16.83;;
26062;SDS011;13837;48.562;12.108;2023-04-15T12:40:34;17.20;;;16.00;;
26062;SDS011;13837;48.562;12.108;2023-04-15T12:43:00;14.45;;;13.35;;
26062;SDS011;13837;48.562;12.108;2023-04-15T12:45:26;15.07;;;14.07;;
26062;SDS011;13837;48.562;12.108;2023-04-15T12:47:52;14.30;;;13.35;;
26062;SDS011;13837;48.562;12.108;2023-04-15T12:50:18;14.45;;;13.50;;
26062;SDS011;13837;48.562;12.108;2023-04-15T12:52:44;14.60;;;13.68;;
26062;SDS011;13837;48.562;12.108;2023-04-15T12:55:10;14.27;;;13.38;;
26062;SDS011;13837;48.562;12.108;2023-04-15T12:57:36;15.93;;;14.90;;
26062;SDS011;13837;48.562;12.108;2023-04-15T13:00:04;14.85;;;13.85;;
26062;SDS011;13837;48.562;12.108;2023-04-15T13:02:32;13.30;;;12.50;;
26062;SDS011;13837;48.562;12.108;2023-04-15T13:04:58;12.95;;;11.93;;
26062;SDS011;13837;48.562;12.108;2023-04-15T13:07:24;12.40;;;11.80;;
26062;SDS011;13837;48.562;12.108;2023-04-15T13:09:50;13.38;;;12.63;;
26062;SDS011;13837;48.562;12.108;2023-04-15T13:12:16;13.05;;;12.25;;
26062;SDS011;13837;48.562;12.108;2023-04-15T13:14:42;13.63;;;12.82;;
26062;SDS011;13837;48.562;12.108;2023-04-15T13:17:08;13.75;;;12.95;;
26062;SDS011;13837;48.562;12.108;2023-04-15T13:19:35;13.38;;;12.48;;
26062;SDS011;13837;48.562;12.108;2023-04-15T13:22:01;13.68;;;12.88;;
26062;SDS011;13837;48.562;12.108;2023-04-15T13:24:27;13.88;;;13.07;;
26062;SDS011;13837;48.562;12.108;2023-04-15T13:26:53;14.00;;;13.20;;
26062;SDS011;13837;48.562;12.108;2023-04-15T13:29:20;13.18;;;12.27;;
26062;SDS011;13837;48.562;12.108;2023-04-15T13:31:46;13.80;;;13.10;;
26062;SDS011;13837;48.562;12.108;2023-04-15T13:34:12;13.50;;;12.80;;
26062;SDS011;13837;48.562;12.108;2023-04-15T13:36:38;13.18;;;12.48;;
26062;SDS011;13837;48.562;12.108;2023-04-15T13:39:04;15.48;;;14.38;;
26062;SDS011;13837;48.562;12.108;2023-04-15T13:41:30;13.52;;;12.77;;
26062;SDS011;13837;48.562;12.108;2023-04-15T13:43:56;13.07;;;12.10;;
26062;SDS011;13837;48.562;12.108;2023-04-15T13:46:22;13.23;;;12.43;;
26062;SDS011;13837;48.562;12.108;2023-04-15T13:48:50;12.05;;;11.38;;
26062;SDS011;13837;48.562;12.108;2023-04-15T13:51:19;12.60;;;11.90;;
26062;SDS011;13837;48.562;12.108;2023-04-15T13:53:45;13.20;;;12.30;;
26062;SDS011;13837;48.562;12.108;2023-04-15T13:56:11;12.80;;;12.15;;
26062;SDS011;13837;48.562;12.108;2023-04-15T13:58:37;14.20;;;13.20;;
26062;SDS011;13837;48.562;12.108;2023-04-15T14:01:03;14.68;;;13.68;;
26062;SDS011;13837;48.562;12.108;2023-04-15T14:03:30;12.50;;;11.80;;
26062;SDS011;13837;48.562;12.108;2023-04-15T14:05:56;12.80;;;12.00;;
26062;SDS011;13837;48.562;12.108;2023-04-15T14:08:23;12.70;;;11.90;;
26062;SDS011;13837;48.562;12.108;2023-04-15T14:10:50;12.55;;;11.85;;
26062;SDS011;13837;48.562;12.108;2023-04-15T14:13:16;12.73;;;12.00;;
26062;SDS011;13837;48.562;12.108;2023-04-15T14:15:43;13.52;;;12.82;;
26062;SDS011;13837;48.562;12.108;2023-04-15T14:18:10;13.07;;;12.40;;